Time;durP1;ratioP1;P1;durP2;ratioP2;P2;SDS_P1;SDS_P2;PMS_P1;PMS_P2;Temp;Humidity;BMP_temperature;BMP_pressure;BME280_temperature;BME280_humidity;BME280_pressure;Samples;Min_cycle;Max_cycle;Signal;HPM_P1;HPM_P2
2022/09/24 00:01:24;;;;;;;21.33;13.33;;;;;;;9.53;96.82;100660.78;1473495;88;21486;-84
2022/09/24 00:03:54;;;;;;;24.80;13.85;;;;;;;9.53;97.42;100662.11;1454360;88;21426;-85
2022/09/24 00:06:21;;;;;;;20.83;13.60;;;;;;;9.52;97.03;100670.49;1449713;88;21359;-84
2022/09/24 00:08:53;;;;;;;24.23;11.90;;;;;;;9.54;97.12;100667.73;1458847;88;21449;-84
2022/09/24 00:11:22;;;;;;;17.93;11.43;;;;;;;9.53;97.29;100666.07;1472760;88;21442;-84
2022/09/24 00:13:51;;;;;;;18.10;11.73;;;;;;;9.56;97.29;100660.52;1459911;88;21545;-84
2022/09/24 00:16:21;;;;;;;16.37;11.73;;;;;;;9.59;97.18;100660.24;1457640;88;21570;-84
2022/09/24 00:18:48;;;;;;;34.63;13.03;;;;;;;9.63;97.17;100661.63;1445273;90;21580;-84
2022/09/24 00:21:22;;;;;;;21.30;10.90;;;;;;;9.64;96.99;100654.07;1455406;88;21589;-85
2022/09/24 00:23:51;;;;;;;27.90;12.80;;;;;;;9.66;96.72;100656.06;1456804;88;21425;-85
2022/09/24 00:29:04;;;;;;;19.43;11.80;;;;;;;9.61;96.40;100643.74;1441190;89;21487;-85
2022/09/24 00:31:31;;;;;;;20.03;12.13;;;;;;;9.60;96.76;100648.69;1444894;89;22537;-84
2022/09/24 00:33:58;;;;;;;20.00;12.67;;;;;;;9.59;96.78;100641.74;1445514;88;21622;-84
2022/09/24 00:36:24;;;;;;;16.47;11.33;;;;;;;9.60;96.92;100646.87;1469288;88;21556;-85
2022/09/24 00:38:54;;;;;;;20.97;13.07;;;;;;;9.59;97.53;100642.58;1465592;88;22314;-85
2022/09/24 00:41:23;;;;;;;20.57;12.30;;;;;;;9.60;97.22;100636.80;1469471;88;22432;-85
2022/09/24 00:43:50;;;;;;;22.70;13.30;;;;;;;9.58;97.25;100634.77;1471132;88;21477;-85
2022/09/24 00:46:43;;;;;;;18.00;11.77;;;;;;;9.58;97.01;100633.45;1473642;88;22313;-85
2022/09/24 00:49:17;;;;;;;19.37;13.27;;;;;;;9.55;97.16;100630.62;1476538;88;21552;-85
2022/09/24 00:51:50;;;;;;;17.87;12.20;;;;;;;9.55;96.61;100635.04;1475713;88;22462;-84
2022/09/24 00:54:21;;;;;;;25.10;11.73;;;;;;;9.54;96.63;100629.42;1480182;88;21981;-84
2022/09/24 00:56:50;;;;;;;14.97;11.10;;;;;;;9.57;96.68;100622.54;1480370;88;21456;-84
2022/09/24 00:59:21;;;;;;;30.60;14.60;;;;;;;9.60;96.62;100624.41;1432299;91;21419;-85
2022/09/24 01:01:49;;;;;;;29.00;13.67;;;;;;;9.62;96.51;100624.30;1464045;88;21479;-83
2022/09/24 01:04:20;;;;;;;44.43;20.13;;;;;;;9.65;96.70;100621.38;1476427;88;22076;-85
2022/09/24 01:06:49;;;;;;;37.23;18.57;;;;;;;9.64;96.27;100619.72;1467121;88;21530;-85
2022/09/24 01:09:17;;;;;;;38.73;17.73;;;;;;;9.60;95.97;100621.77;1450994;90;21442;-84
2022/09/24 01:12:33;;;;;;;41.53;17.93;;;;;;;9.56;95.99;100627.48;1472567;88;21941;-84
2022/09/24 01:15:27;;;;;;;32.03;14.90;;;;;;;9.48;96.85;100626.83;1463773;88;21552;-85
2022/09/24 01:18:04;;;;;;;26.33;12.63;;;;;;;9.40;96.81;100625.34;1449201;90;21463;-84
2022/09/24 01:20:57;;;;;;;17.70;11.23;;;;;;;9.38;96.62;100628.14;1436716;88;22046;-83
2022/09/24 01:24:04;;;;;;;16.07;10.27;;;;;;;9.36;96.65;100620.00;1437051;90;21396;-85
2022/09/24 01:27:03;;;;;;;21.20;12.83;;;;;;;9.35;96.35;100623.13;1437686;88;21909;-84
2022/09/24 01:29:48;;;;;;;22.57;13.43;;;;;;;9.27;97.44;100622.96;1449852;88;21420;-84
2022/09/24 01:32:33;;;;;;;18.53;12.10;;;;;;;9.19;96.80;100618.34;1442185;90;21524;-88
2022/09/24 01:35:20;;;;;;;21.20;13.13;;;;;;;9.17;96.91;100620.77;1445265;89;21509;-86
2022/09/24 01:37:58;;;;;;;17.47;11.80;;;;;;;9.12;97.14;100620.31;1454083;88;21622;-86
2022/09/24 01:40:27;;;;;;;20.13;11.27;;;;;;;9.05;97.16;100620.02;1463229;88;21548;-85
2022/09/24 01:42:57;;;;;;;16.23;10.83;;;;;;;9.00;97.30;100621.73;1466660;88;21452;-85
2022/09/24 01:45:30;;;;;;;25.05;12.40;;;;;;;8.98;97.23;100624.18;1459501;88;21427;-86
2022/09/24 01:47:59;;;;;;;17.80;11.47;;;;;;;8.95;97.13;100613.39;1447229;90;21471;-87
2022/09/24 01:50:29;;;;;;;18.47;11.37;;;;;;;8.95;97.40;100612.08;1451308;90;21441;-87
2022/09/24 01:53:09;;;;;;;14.58;10.63;;;;;;;8.95;97.05;100613.39;1448578;90;21434;-86
2022/09/24 01:55:40;;;;;;;16.63;10.80;;;;;;;8.89;97.83;100609.97;1415145;90;21634;-86
2022/09/24 01:58:11;;;;;;;16.73;10.27;;;;;;;8.84;96.86;100610.84;1428206;90;21602;-86
2022/09/24 02:00:41;;;;;;;16.03;11.77;;;;;;;8.75;97.38;100615.59;1454450;88;21419;-86
2022/09/24 02:03:19;;;;;;;15.43;10.48;;;;;;;8.68;97.64;100617.07;1453584;88;21494;-86
2022/09/24 02:05:56;;;;;;;18.27;9.93;;;;;;;8.64;97.40;100607.27;1454773;88;21685;-86
2022/09/24 02:08:32;;;;;;;21.10;12.03;;;;;;;8.63;97.33;100608.70;1467399;88;21597;-82
2022/09/24 02:11:17;;;;;;;14.63;9.63;;;;;;;8.62;97.31;100603.91;1469851;88;22477;-83
2022/09/24 02:14:09;;;;;;;19.97;10.83;;;;;;;8.58;97.03;100605.98;1466071;88;22816;-82
2022/09/24 02:16:44;;;;;;;16.03;11.67;;;;;;;8.53;97.36;100609.98;1482605;88;21796;-82
2022/09/24 02:19:18;;;;;;;23.43;11.40;;;;;;;8.50;97.49;100604.48;1480424;88;22484;-81
2022/09/24 02:21:45;;;;;;;22.47;13.77;;;;;;;8.45;97.22;100607.14;1463474;88;21450;-83
2022/09/24 02:24:25;;;;;;;14.83;10.13;;;;;;;8.41;97.05;100601.30;1463887;88;22367;-85
2022/09/24 02:26:51;;;;;;;14.43;9.27;;;;;;;8.36;96.71;100598.17;1446361;90;22278;-86
2022/09/24 02:29:17;;;;;;;10.63;8.30;;;;;;;8.30;96.85;100603.48;1450668;90;21427;-85
2022/09/24 02:31:50;;;;;;;14.80;9.80;;;;;;;8.29;96.66;100598.35;1443910;88;21457;-84
2022/09/24 02:34:21;;;;;;;15.33;9.50;;;;;;;8.32;97.12;100594.14;1463579;88;21412;-84
2022/09/24 02:37:08;;;;;;;;;;;;;;;8.34;96.80;100604.05;1477640;88;21427;-83
2022/09/24 02:39:35;;;;;;;17.87;10.07;;;;;;;8.30;97.02;100602.16;1487040;88;20284;-85
2022/09/24 02:42:04;;;;;;;15.20;11.17;;;;;;;8.28;96.36;100597.98;1456358;88;21383;-84
2022/09/24 02:44:32;;;;;;;18.27;10.63;;;;;;;8.24;96.12;100597.90;1463574;88;21571;-85
2022/09/24 02:46:59;;;;;;;15.87;11.00;;;;;;;8.20;96.38;100591.19;1473129;88;21625;-85
2022/09/24 02:49:25;;;;;;;18.03;10.40;;;;;;;8.19;96.13;100596.13;1470698;88;22509;-86
2022/09/24 02:51:51;;;;;;;13.37;9.37;;;;;;;8.18;96.16;100591.33;1485194;88;21479;-86
2022/09/24 02:54:17;;;;;;;18.23;9.87;;;;;;;8.18;95.90;100597.09;1481051;88;21464;-85
2022/09/24 02:57:05;;;;;;;20.23;12.07;;;;;;;8.14;95.82;100595.17;1477921;88;22284;-86
2022/09/24 02:59:31;;;;;;;18.20;10.00;;;;;;;8.10;95.66;100600.36;1481393;88;22373;-86
2022/09/24 03:01:57;;;;;;;14.00;10.50;;;;;;;8.06;95.78;100596.31;1476043;88;22378;-86
2022/09/24 03:04:24;;;;;;;16.73;9.63;;;;;;;8.00;95.73;100597.66;1475595;88;21445;-85
2022/09/24 03:06:50;;;;;;;12.87;8.93;;;;;;;7.96;95.67;100592.27;1462344;88;22294;-86
2022/09/24 03:09:16;;;;;;;14.33;8.37;;;;;;;7.90;95.87;100591.45;1446269;90;21406;-85
2022/09/24 03:11:42;;;;;;;15.17;10.33;;;;;;;7.88;95.75;100595.55;1443960;90;21686;-86
2022/09/24 03:14:08;;;;;;;15.50;10.40;;;;;;;7.90;95.81;100596.73;1448700;88;21435;-86
2022/09/24 03:16:35;;;;;;;16.13;10.77;;;;;;;7.91;95.89;100593.13;1458376;86;21362;-86
2022/09/24 03:19:01;;;;;;;17.97;10.90;;;;;;;7.90;95.72;100587.51;1442578;90;22397;-84
2022/09/24 03:21:27;;;;;;;16.53;9.80;;;;;;;7.90;95.57;100590.14;1444174;90;21412;-85
2022/09/24 03:23:53;;;;;;;15.83;10.30;;;;;;;7.88;95.40;100590.74;1452917;90;21396;-85
2022/09/24 03:26:19;;;;;;;16.33;10.40;;;;;;;7.84;95.46;100589.34;1455157;89;21465;-84
2022/09/24 03:28:45;;;;;;;18.30;10.23;;;;;;;7.79;95.51;100591.50;1452774;90;21524;-86
2022/09/24 03:31:13;;;;;;;17.33;10.50;;;;;;;7.76;95.61;100600.48;1447305;89;22176;-86
2022/09/24 03:33:46;;;;;;;15.83;10.27;;;;;;;7.77;95.70;100592.10;1449480;90;21501;-86
2022/09/24 03:36:23;;;;;;;26.03;10.53;;;;;;;7.78;95.69;100597.74;1453650;90;22560;-85
2022/09/24 03:38:48;;;;;;;40.30;18.63;;;;;;;7.78;95.67;100595.94;1443644;90;21479;-84
2022/09/24 03:41:16;;;;;;;46.33;19.40;;;;;;;7.79;95.54;100586.23;1429990;91;22544;-85
2022/09/24 03:43:42;;;;;;;37.17;18.67;;;;;;;7.81;95.33;100593.54;1412274;91;21450;-85
2022/09/24 03:46:11;;;;;;;37.23;16.07;;;;;;;7.80;95.07;100585.29;1441356;90;21680;-85
2022/09/24 03:48:40;;;;;;;30.87;15.80;;;;;;;7.77;95.06;100582.87;1454659;90;21434;-84
2022/09/24 03:51:10;;;;;;;32.37;18.07;;;;;;;7.75;94.84;100582.19;1453426;89;21487;-85
2022/09/24 03:53:37;;;;;;;32.25;16.25;;;;;;;7.74;94.75;100594.98;1442750;90;21443;-85
2022/09/24 03:56:05;;;;;;;29.67;14.43;;;;;;;7.73;94.73;100590.69;1427147;91;21560;-85
2022/09/24 03:58:36;;;;;;;14.87;9.23;;;;;;;7.73;94.71;100589.37;1430794;91;22204;-85
2022/09/24 04:01:02;;;;;;;16.57;10.15;;;;;;;7.73;94.66;100594.64;1448384;90;21443;-87
2022/09/24 04:03:28;;;;;;;23.90;13.80;;;;;;;7.69;94.32;100596.21;1450872;90;22612;-87
2022/09/24 04:05:54;;;;;;;43.67;18.77;;;;;;;7.65;94.25;100598.75;1446393;89;21518;-87
2022/09/24 04:08:22;;;;;;;26.17;15.10;;;;;;;7.61;94.27;100601.75;1433878;90;21590;-87
2022/09/24 04:10:50;;;;;;;26.63;14.20;;;;;;;7.58;94.28;100596.73;1447155;90;21550;-85
2022/09/24 04:13:17;;;;;;;24.37;12.50;;;;;;;7.55;94.40;100597.81;1447042;90;21598;-85
2022/09/24 04:15:44;;;;;;;26.77;12.20;;;;;;;7.54;94.39;100596.15;1430017;90;21568;-84
2022/09/24 04:18:10;;;;;;;17.23;10.03;;;;;;;7.54;94.36;100592.20;1417126;91;22418;-86
2022/09/24 04:20:37;;;;;;;15.07;9.80;;;;;;;7.55;94.39;100591.23;1416643;91;21617;-86
2022/09/24 04:23:03;;;;;;;17.13;11.07;;;;;;;7.54;94.14;100593.52;1423615;91;22624;-85
2022/09/24 04:25:31;;;;;;;19.87;12.03;;;;;;;7.53;94.19;100589.19;1428690;89;21486;-85
2022/09/24 04:28:02;;;;;;;26.33;13.27;;;;;;;7.52;94.24;100592.79;1439253;90;21930;-86
2022/09/24 04:30:30;;;;;;;22.45;12.05;;;;;;;7.49;94.75;100590.41;1437073;90;21465;-85
2022/09/24 04:32:59;;;;;;;22.27;11.93;;;;;;;7.48;94.63;100594.02;1435640;90;21544;-86
2022/09/24 04:35:24;;;;;;;19.47;11.37;;;;;;;7.48;95.03;100593.15;1477800;88;21582;-85
2022/09/24 04:37:50;;;;;;;22.50;10.57;;;;;;;7.49;94.93;100589.58;1480094;88;21486;-85
2022/09/24 04:40:16;;;;;;;18.70;10.40;;;;;;;7.48;94.60;100591.38;1481384;88;21523;-85
2022/09/24 04:42:45;;;;;;;14.37;9.70;;;;;;;7.47;94.60;100597.59;1468427;88;22302;-86
2022/09/24 04:45:18;;;;;;;18.60;10.63;;;;;;;7.45;94.33;100598.18;1468290;88;22321;-84
2022/09/24 04:47:41;;;;;;;17.75;10.10;;;;;;;7.44;94.34;100599.16;1470071;88;21338;-85
2022/09/24 04:50:10;;;;;;;14.43;10.10;;;;;;;7.39;94.32;100598.22;1455634;88;21382;-86
2022/09/24 04:52:38;;;;;;;14.43;10.30;;;;;;;7.37;94.71;100596.67;1471147;88;22390;-85
2022/09/24 04:55:05;;;;;;;14.37;9.70;;;;;;;7.36;94.44;100602.87;1462416;89;22526;-86
2022/09/24 04:57:33;;;;;;;23.60;13.87;;;;;;;7.37;94.59;100594.03;1458092;89;21516;-84
2022/09/24 05:00:00;;;;;;;15.40;10.70;;;;;;;7.41;94.72;100599.40;1453904;88;22425;-86
2022/09/24 05:02:26;;;;;;;15.27;11.13;;;;;;;7.43;94.72;100593.54;1480276;88;21419;-84
2022/09/24 05:04:52;;;;;;;15.87;10.63;;;;;;;7.50;95.12;100597.34;1480163;88;21428;-76
2022/09/24 05:07:18;;;;;;;15.40;11.93;;;;;;;7.55;95.07;100593.86;1458947;88;21428;-76
2022/09/24 05:09:44;;;;;;;14.43;10.77;;;;;;;7.59;94.86;100595.27;1451886;88;22368;-78
2022/09/24 05:12:10;;;;;;;16.47;11.63;;;;;;;7.62;94.56;100603.41;1461117;88;21438;-76
2022/09/24 05:14:36;;;;;;;15.60;11.93;;;;;;;7.60;94.34;100607.98;1464901;88;21412;-77
2022/09/24 05:17:02;;;;;;;16.33;10.87;;;;;;;7.59;94.22;100609.76;1475296;88;21378;-77
2022/09/24 05:19:29;;;;;;;14.17;9.10;;;;;;;7.60;94.25;100612.77;1460270;88;22249;-77
2022/09/24 05:21:55;;;;;;;14.67;9.27;;;;;;;7.62;94.64;100608.22;1451805;90;21494;-77
2022/09/24 05:24:21;;;;;;;14.17;9.70;;;;;;;7.67;94.75;100611.78;1452571;90;22449;-76
2022/09/24 05:29:32;;;;;;;13.30;9.50;;;;;;;7.79;94.97;100615.22;1449274;89;22304;-78
2022/09/24 05:32:01;;;;;;;12.57;10.07;;;;;;;7.89;95.33;100616.16;1453542;88;21397;-78
2022/09/24 05:34:27;;;;;;;13.73;8.60;;;;;;;7.99;95.27;100610.47;1451511;88;21486;-76
2022/09/24 05:36:53;;;;;;;11.97;8.57;;;;;;;8.11;95.35;100609.92;1450964;90;22467;-77
2022/09/24 05:39:19;;;;;;;11.57;9.33;;;;;;;8.21;95.25;100608.70;1454587;88;21511;-77
2022/09/24 05:41:45;;;;;;;12.47;8.33;;;;;;;8.35;95.47;100609.70;1475913;88;21434;-76
2022/09/24 05:44:11;;;;;;;10.03;8.00;;;;;;;8.50;95.16;100605.80;1482556;88;21420;-78
2022/09/24 05:46:37;;;;;;;10.77;7.80;;;;;;;8.67;94.90;100612.77;1488188;88;21493;-79
2022/09/24 05:49:03;;;;;;;9.73;7.87;;;;;;;8.77;93.81;100617.11;1468114;88;21368;-79
2022/09/24 05:51:29;;;;;;;12.13;8.47;;;;;;;8.81;92.86;100616.39;1464746;88;21516;-80
2022/09/24 05:53:55;;;;;;;14.33;9.27;;;;;;;8.84;92.76;100621.89;1448665;89;21493;-80
2022/09/24 05:56:21;;;;;;;14.03;9.00;;;;;;;8.87;92.64;100618.50;1458673;88;21360;-79
2022/09/24 05:58:49;;;;;;;12.70;8.33;;;;;;;8.94;92.79;100627.55;1449901;88;22102;-79
2022/09/24 06:01:15;;;;;;;10.73;7.70;;;;;;;8.99;92.98;100624.03;1462154;88;21530;-81
2022/09/24 06:03:41;;;;;;;12.33;8.57;;;;;;;9.02;92.15;100618.48;1448918;88;22359;-79
2022/09/24 06:06:07;;;;;;;12.00;8.83;;;;;;;9.06;91.97;100619.53;1451117;90;21493;-81
2022/09/24 06:08:33;;;;;;;10.10;7.83;;;;;;;9.08;92.17;100618.44;1455397;89;21418;-81
2022/09/24 06:11:05;;;;;;;14.37;8.60;;;;;;;9.13;91.69;100622.01;1446679;90;22291;-80
2022/09/24 06:13:35;;;;;;;15.80;8.80;;;;;;;9.18;91.77;100629.05;1456760;89;21471;-80
2022/09/24 06:16:02;;;;;;;10.87;9.10;;;;;;;9.22;91.69;100625.99;1468306;88;22306;-82
2022/09/24 06:18:28;;;;;;;14.90;8.20;;;;;;;9.30;92.11;100626.65;1475736;88;21596;-80
2022/09/24 06:20:56;;;;;;;14.73;9.00;;;;;;;9.36;91.73;100632.72;1453474;88;21501;-81
2022/09/24 06:23:23;;;;;;;10.00;7.70;;;;;;;9.44;91.50;100634.69;1458440;88;21500;-81
2022/09/24 06:25:50;;;;;;;10.13;8.10;;;;;;;9.51;90.77;100631.02;1468113;88;21389;-81
2022/09/24 06:28:16;;;;;;;10.03;7.80;;;;;;;9.59;90.65;100634.64;1464396;88;21493;-81
2022/09/24 06:30:42;;;;;;;9.80;7.30;;;;;;;9.65;88.57;100633.27;1455171;88;21457;-80
2022/09/24 06:33:11;;;;;;;11.47;8.87;;;;;;;9.75;88.84;100637.23;1473822;88;21632;-78
2022/09/24 06:35:39;;;;;;;9.93;7.50;;;;;;;9.81;89.31;100634.90;1447099;89;21416;-76
2022/09/24 06:38:08;;;;;;;13.50;7.63;;;;;;;9.89;88.93;100629.73;1443662;88;21604;-77
2022/09/24 06:40:34;;;;;;;9.27;7.50;;;;;;;10.06;89.26;100628.70;1444578;88;21670;-78
2022/09/24 06:43:00;;;;;;;9.80;7.60;;;;;;;10.14;87.89;100624.38;1444617;88;21411;-78
2022/09/24 06:45:27;;;;;;;9.80;8.17;;;;;;;10.22;87.38;100623.70;1441977;88;21548;-79
2022/09/24 06:47:54;;;;;;;15.73;9.13;;;;;;;10.30;86.87;100619.90;1445739;89;21448;-78
2022/09/24 06:50:22;;;;;;;11.17;9.50;;;;;;;10.42;86.78;100621.90;1453587;88;21397;-78
2022/09/24 06:52:48;;;;;;;11.70;8.50;;;;;;;10.53;86.77;100625.71;1445473;88;21485;-77
2022/09/24 06:55:15;;;;;;;12.80;7.97;;;;;;;10.60;84.61;100626.80;1449317;88;22374;-77
2022/09/24 06:57:42;;;;;;;9.90;7.77;;;;;;;10.74;85.52;100629.48;1442112;88;21433;-78
2022/09/24 07:00:10;;;;;;;9.53;7.73;;;;;;;10.82;85.42;100628.28;1445292;89;22594;-79
2022/09/24 07:02:36;;;;;;;10.43;7.17;;;;;;;11.00;85.93;100624.87;1371429;90;21531;-76
2022/09/24 07:05:02;;;;;;;9.53;7.90;;;;;;;11.19;85.63;100628.77;1371827;90;21440;-78
2022/09/24 07:07:28;;;;;;;10.23;8.50;;;;;;;11.33;84.92;100630.07;1371766;90;21347;-78
2022/09/24 07:09:55;;;;;;;15.10;9.13;;;;;;;11.40;83.48;100632.98;1373835;90;22084;-79
2022/09/24 07:12:23;;;;;;;11.33;8.67;;;;;;;11.52;83.94;100635.27;1430883;90;21456;-77
2022/09/24 07:14:49;;;;;;;13.57;8.17;;;;;;;11.67;83.84;100630.29;1442243;90;21471;-79
2022/09/24 07:17:15;;;;;;;15.13;8.80;;;;;;;11.77;83.11;100628.06;1453989;88;22444;-79
2022/09/24 07:19:41;;;;;;;9.97;8.23;;;;;;;11.86;82.43;100636.49;1450315;90;21456;-77
2022/09/24 07:22:08;;;;;;;14.10;7.93;;;;;;;12.01;82.61;100634.97;1443691;90;21434;-78
2022/09/24 07:24:34;;;;;;;12.03;8.50;;;;;;;12.15;82.33;100637.59;1376942;90;21438;-79
2022/09/24 07:27:05;;;;;;;17.37;8.67;;;;;;;12.32;81.99;100634.58;1372698;89;21619;-78
2022/09/24 07:29:31;;;;;;;12.10;7.83;;;;;;;12.49;81.88;100636.87;1528358;90;21405;-78
2022/09/24 07:31:57;;;;;;;11.73;9.47;;;;;;;12.63;80.60;100645.59;1378877;88;21331;-79
2022/09/24 07:34:24;;;;;;;11.27;7.87;;;;;;;12.76;80.54;100648.66;1357007;91;21402;-78
2022/09/24 07:36:50;;;;;;;9.40;8.10;;;;;;;12.83;77.98;100644.87;1373974;89;21434;-78
2022/09/24 07:39:16;;;;;;;10.80;9.17;;;;;;;12.91;77.97;100646.75;1380515;89;22219;-78
2022/09/24 07:41:42;;;;;;;12.43;8.33;;;;;;;12.97;77.91;100642.95;1434008;88;21499;-79
2022/09/24 07:44:09;;;;;;;11.03;7.53;;;;;;;13.10;78.04;100646.03;1451613;89;21556;-82
2022/09/24 07:46:34;;;;;;;8.80;7.67;;;;;;;13.21;76.84;100654.23;1444704;88;21389;-79
2022/09/24 07:49:01;;;;;;;10.10;7.87;;;;;;;13.27;75.69;100652.78;1436907;88;21463;-79
2022/09/24 07:51:28;;;;;;;10.30;8.13;;;;;;;13.31;75.67;100657.61;1440370;88;21420;-77
2022/09/24 07:53:55;;;;;;;10.43;7.67;;;;;;;13.40;74.75;100661.13;1443110;88;22313;-78
2022/09/24 07:56:23;;;;;;;8.43;6.20;;;;;;;13.47;74.38;100658.18;1370948;89;21321;-78
2022/09/24 07:58:51;;;;;;;9.77;7.33;;;;;;;13.51;72.40;100655.52;1377188;89;22719;-78
2022/09/24 08:01:18;;;;;;;14.37;9.00;;;;;;;13.56;73.55;100659.55;1372236;89;21337;-78
2022/09/24 08:03:45;;;;;;;15.83;8.30;;;;;;;13.68;73.96;100660.91;1371284;90;21375;-80
2022/09/24 08:06:12;;;;;;;8.23;7.40;;;;;;;13.86;74.59;100658.94;1372895;91;21328;-77
2022/09/24 08:08:39;;;;;;;9.27;7.90;;;;;;;14.05;74.34;100656.99;1376408;89;22235;-77
2022/09/24 08:11:07;;;;;;;7.80;7.00;;;;;;;14.17;73.23;100657.82;1374862;90;21599;-78
2022/09/24 08:13:34;;;;;;;8.57;7.33;;;;;;;14.34;73.18;100660.50;1369830;88;21463;-79
2022/09/24 08:16:02;;;;;;;8.90;7.30;;;;;;;14.43;72.71;100645.67;1372638;90;22204;-77
2022/09/24 08:18:30;;;;;;;18.37;9.00;;;;;;;14.56;71.71;100660.37;1444719;88;21412;-78
2022/09/24 08:21:00;;;;;;;10.20;6.63;;;;;;;14.63;71.13;100658.17;1443757;88;21648;-78
2022/09/24 08:23:26;;;;;;;10.03;6.87;;;;;;;14.66;69.27;100657.02;1456236;89;22720;-78
2022/09/24 08:25:55;;;;;;;7.43;6.50;;;;;;;14.71;70.89;100657.34;1454728;88;21405;-78
2022/09/24 08:28:21;;;;;;;9.57;6.27;;;;;;;14.74;69.75;100666.84;1457815;88;21346;-78
2022/09/24 08:30:47;;;;;;;9.87;7.57;;;;;;;14.78;70.08;100663.64;1460152;88;21369;-77
2022/09/24 08:33:14;;;;;;;6.87;5.93;;;;;;;14.86;70.29;100664.97;1452853;88;21405;-76
2022/09/24 08:35:41;;;;;;;7.07;5.90;;;;;;;14.95;70.25;100662.29;1467314;88;21405;-78
2022/09/24 08:38:08;;;;;;;6.80;6.10;;;;;;;15.04;70.26;100669.25;1458509;88;21405;-79
2022/09/24 08:40:39;;;;;;;7.87;6.23;;;;;;;15.12;69.47;100663.91;1468095;88;21415;-78
2022/09/24 08:43:37;;;;;;;10.03;7.33;;;;;;;15.22;69.33;100661.89;1456499;90;22351;-76
2022/09/24 08:49:02;;;;;;;9.70;6.10;;;;;;;15.26;66.75;100669.86;1460635;88;21534;-78
2022/09/24 08:51:36;;;;;;;7.27;6.17;;;;;;;15.26;67.16;100671.19;1473665;88;21418;-78
2022/09/24 08:54:08;;;;;;;10.17;6.73;;;;;;;15.19;65.96;100668.90;1459263;88;21514;-78
2022/09/24 08:56:37;;;;;;;7.57;6.43;;;;;;;15.20;66.61;100667.06;1553743;88;21383;-80
2022/09/24 08:59:31;;;;;;;8.50;6.10;;;;;;;15.28;67.10;100674.52;1391641;88;21249;-80
2022/09/24 09:02:41;;;;;;;7.07;6.20;;;;;;;15.37;64.65;100676.66;1560840;88;22152;-79
2022/09/24 09:05:31;;;;;;;7.67;6.40;;;;;;;15.50;65.73;100683.59;1395496;88;21454;-79
2022/09/24 09:08:06;;;;;;;7.00;5.47;;;;;;;15.62;65.46;100680.03;1560105;88;22095;-76
2022/09/24 09:10:39;;;;;;;7.57;6.03;;;;;;;15.70;64.71;100686.69;1438023;90;21419;-80
2022/09/24 09:13:22;;;;;;;7.47;6.57;;;;;;;15.68;64.53;100684.72;1529606;88;21310;-79
2022/09/24 09:16:12;;;;;;;8.37;6.20;;;;;;;15.70;64.33;100681.36;1399067;88;21651;-77
2022/09/24 09:18:43;;;;;;;9.43;7.27;;;;;;;15.72;64.52;100678.02;1424560;88;21379;-79
2022/09/24 09:21:20;;;;;;;11.50;8.57;;;;;;;15.82;65.28;100676.96;1441568;88;21404;-79
2022/09/24 09:23:51;;;;;;;10.03;7.23;;;;;;;15.79;62.96;100672.33;1460026;88;21828;-79
2022/09/24 09:26:23;;;;;;;9.20;7.10;;;;;;;15.80;63.57;100673.15;1381427;88;21350;-78
2022/09/24 09:28:47;;;;;;;11.63;7.60;;;;;;;15.78;62.57;100673.31;1532685;88;21449;-80
2022/09/24 09:31:50;;;;;;;10.47;7.57;;;;;;;15.89;62.87;100669.93;1474131;88;21408;-79
2022/09/24 09:34:33;;;;;;;8.40;6.67;;;;;;;15.97;62.38;100668.55;1469617;88;21589;-79
2022/09/24 09:37:20;;;;;;;11.73;7.30;;;;;;;15.99;61.20;100663.84;1434586;88;22512;-78
2022/09/24 09:40:00;;;;;;;9.57;7.20;;;;;;;16.04;61.55;100658.81;1560198;88;21338;-79
2022/09/24 09:42:34;;;;;;;7.87;6.97;;;;;;;16.14;61.42;100652.74;1558966;88;22544;-79
2022/09/24 09:45:15;;;;;;;12.73;6.23;;;;;;;16.23;61.39;100656.18;1535670;88;21470;-79
2022/09/24 09:47:49;;;;;;;8.58;6.75;;;;;;;16.44;62.18;100659.50;1420874;88;22572;-79
2022/09/24 09:50:46;;;;;;;11.57;7.70;;;;;;;16.64;60.49;100652.64;1447302;88;21490;-78
2022/09/24 09:53:25;;;;;;;8.37;7.27;;;;;;;16.86;60.67;100655.45;1465034;88;22329;-79
2022/09/24 09:55:56;;;;;;;9.43;7.50;;;;;;;16.99;60.24;100655.65;1461946;88;21520;-77
2022/09/24 09:58:27;;;;;;;;;;;;;;;17.10;59.41;100652.52;1509425;88;21374;-78
2022/09/24 10:01:13;;;;;;;9.27;7.93;;;;;;;17.19;57.95;100652.43;1444270;89;20442;-76
2022/09/24 10:03:50;;;;;;;11.77;7.30;;;;;;;17.25;59.37;100656.52;1392303;90;21726;-77
2022/09/24 10:06:27;;;;;;;11.90;6.70;;;;;;;17.35;58.48;100648.23;1407059;88;22218;-77
2022/09/24 10:08:55;;;;;;;9.93;7.73;;;;;;;17.44;57.57;100645.77;1400481;89;21332;-78
2022/09/24 10:11:21;;;;;;;12.33;6.50;;;;;;;17.40;57.28;100645.80;1526937;88;21427;-78
2022/09/24 10:14:03;;;;;;;11.63;7.60;;;;;;;17.41;56.44;100646.66;1389695;88;21395;-78
2022/09/24 10:16:30;;;;;;;8.20;6.80;;;;;;;17.46;57.19;100645.05;1535700;88;21396;-78
2022/09/24 10:18:56;;;;;;;8.63;6.80;;;;;;;17.54;54.84;100638.25;1397569;88;21466;-78
2022/09/24 10:21:35;;;;;;;7.33;6.63;;;;;;;17.70;55.96;100648.44;1372214;88;21417;-78
2022/09/24 10:24:07;;;;;;;10.67;6.87;;;;;;;17.80;54.48;100645.78;1396955;88;22255;-78
2022/09/24 10:26:40;;;;;;;11.83;8.17;;;;;;;17.88;54.01;100644.84;1517330;89;21321;-77
2022/09/24 10:32:04;;;;;;;7.35;6.42;;;;;;;18.00;52.34;100637.13;1544286;88;22226;-78
2022/09/24 10:34:31;;;;;;;7.92;6.55;;;;;;;18.15;52.93;100635.72;1461333;89;21581;-79
2022/09/24 10:37:03;;;;;;;8.63;5.85;;;;;;;18.44;52.99;100641.43;1381231;89;22175;-77
2022/09/24 10:39:30;;;;;;;9.40;6.50;;;;;;;18.52;52.14;100635.94;1533111;88;21391;-76
2022/09/24 10:41:57;;;;;;;6.15;5.55;;;;;;;18.57;52.29;100638.05;1388881;89;21420;-75
2022/09/24 10:44:29;;;;;;;8.65;6.17;;;;;;;18.43;51.16;100639.27;1438856;88;21405;-77
2022/09/24 10:47:00;;;;;;;7.75;5.83;;;;;;;18.41;51.84;100638.66;1462463;88;21568;-77
2022/09/24 10:49:59;;;;;;;14.03;8.05;;;;;;;18.44;51.55;100623.53;1469601;88;21559;-73
2022/09/24 10:52:46;;;;;;;10.78;6.08;;;;;;;18.39;51.28;100628.63;1456609;88;21478;-73
2022/09/24 10:55:43;;;;;;;11.10;6.28;;;;;;;18.29;50.08;100636.16;1446546;90;22131;-73
2022/09/24 10:58:41;;;;;;;11.53;6.72;;;;;;;18.21;51.42;100626.91;1457101;88;21479;-73
2022/09/24 11:01:15;;;;;;;7.95;6.20;;;;;;;18.22;51.88;100623.23;1470606;88;21478;-73
2022/09/24 11:04:08;;;;;;;7.00;5.97;;;;;;;18.19;51.37;100624.96;1455455;88;21477;-73
2022/09/24 11:07:16;;;;;;;8.90;5.50;;;;;;;18.19;50.73;100615.58;1463942;88;22130;-73
2022/09/24 11:10:27;;;;;;;7.45;5.28;;;;;;;18.17;50.12;100614.94;1457039;89;21471;-73
2022/09/24 11:13:20;;;;;;;5.92;4.92;;;;;;;18.31;51.58;100612.69;1454648;88;22282;-74
2022/09/24 11:16:10;;;;;;;9.88;4.75;;;;;;;18.41;48.74;100606.50;1451720;88;21375;-74
2022/09/24 11:18:59;;;;;;;7.97;4.28;;;;;;;18.59;48.73;100599.30;1453525;88;22050;-86
2022/09/24 11:21:50;;;;;;;10.28;5.55;;;;;;;18.65;48.11;100598.52;1458797;88;21508;-80
2022/09/24 11:24:42;;;;;;;4.58;4.08;;;;;;;18.77;48.38;100596.14;1475821;88;21486;-79
2022/09/24 11:27:22;;;;;;;4.92;3.95;;;;;;;18.69;45.82;100594.41;1463611;88;21854;-79
2022/09/24 11:30:25;;;;;;;5.53;4.08;;;;;;;18.81;47.23;100586.66;1470351;88;22283;-79
2022/09/24 11:33:25;;;;;;;5.08;4.40;;;;;;;18.75;46.41;100579.42;1474263;88;21433;-82
2022/09/24 11:36:17;;;;;;;6.30;4.25;;;;;;;18.98;47.60;100580.47;1468884;88;21644;-81
2022/09/24 11:39:23;;;;;;;5.97;3.90;;;;;;;19.23;45.30;100582.13;1471380;88;21565;-81
2022/09/24 11:42:07;;;;;;;7.10;4.75;;;;;;;19.38;44.85;100582.80;1427143;89;22177;-80
2022/09/24 11:44:58;;;;;;;9.83;4.58;;;;;;;19.54;45.32;100579.45;1375561;91;21459;-82
2022/09/24 11:47:36;;;;;;;4.92;4.12;;;;;;;19.67;46.41;100576.81;1486210;88;21419;-79
2022/09/24 11:50:17;;;;;;;4.47;4.08;;;;;;;19.74;44.16;100568.27;1456030;88;21433;-82
2022/09/24 11:53:14;;;;;;;9.38;4.00;;;;;;;19.93;44.06;100569.83;1457086;88;21476;-80
2022/09/24 11:56:04;;;;;;;6.92;4.00;;;;;;;19.90;43.16;100578.30;1360654;93;21349;-81
2022/09/24 11:58:38;;;;;;;6.08;4.40;;;;;;;19.52;42.66;100574.27;1527179;88;21471;-81